createdAt,value
2018-02-17T00:00:16.921Z,79.1
2018-02-17T00:00:43.124Z,79.19
2018-02-17T00:01:09.183Z,78.91
2018-02-17T00:01:35.337Z,78.91
2018-02-17T00:02:01.485Z,78.91
2018-02-17T00:02:27.608Z,78.81
2018-02-17T00:02:53.755Z,78.91
2018-02-17T00:03:19.943Z,79.28
2018-02-17T00:03:46.045Z,79.28
2018-02-17T00:04:12.166Z,79.28
2018-02-17T00:04:38.358Z,79.66
2018-02-17T00:05:04.460Z,78.91
2018-02-17T00:05:30.582Z,79.38
2018-02-17T00:05:56.717Z,79.28
2018-02-17T00:06:22.823Z,79.28
2018-02-17T00:06:48.926Z,79.76
2018-02-17T00:07:15.028Z,79.1
2018-02-17T00:07:41.126Z,79.28
2018-02-17T00:08:07.306Z,79
2018-02-17T00:08:33.402Z,79.38
2018-02-17T00:08:59.568Z,79.38
2018-02-17T00:09:25.688Z,79.15
2018-02-17T00:09:51.785Z,79.19
2018-02-17T00:10:17.889Z,79.85
2018-02-17T00:10:43.988Z,79.34
2018-02-17T00:11:10.083Z,79.66
2018-02-17T00:11:36.188Z,79.63
2018-02-17T00:12:02.294Z,79.82
2018-02-17T00:12:28.666Z,79.72
2018-02-17T00:12:54.826Z,79.72
2018-02-17T00:13:20.929Z,79.44
2018-02-17T00:13:47.030Z,79.85
2018-02-17T00:14:13.125Z,79.72
2018-02-17T00:14:39.233Z,79.72
2018-02-17T00:15:06.097Z,79.76
2018-02-17T00:15:32.199Z,79.66
2018-02-17T00:15:58.298Z,79.66
2018-02-17T00:16:24.403Z,79.85
2018-02-17T00:16:50.501Z,79.66
2018-02-17T00:17:16.635Z,79.38
2018-02-17T00:17:43.115Z,79.76
2018-02-17T00:18:09.213Z,79.76
2018-02-17T00:18:35.309Z,79.66
2018-02-17T00:19:01.427Z,79.28
2018-02-17T00:19:27.532Z,79.34
2018-02-17T00:19:53.663Z,79.63
2018-02-17T00:20:20.194Z,79.66
2018-02-17T00:20:46.234Z,79.47
2018-02-17T00:21:12.328Z,79.66
2018-02-17T00:21:38.431Z,79.57
2018-02-17T00:22:04.534Z,79.38
2018-02-17T00:22:30.630Z,79.57
2018-02-17T00:22:56.735Z,79
2018-02-17T00:23:22.832Z,79.63
2018-02-17T00:23:48.937Z,79.57
2018-02-17T00:24:15.183Z,79.38
2018-02-17T00:24:41.279Z,79.47
2018-02-17T00:25:07.381Z,79.38
2018-02-17T00:25:33.483Z,79.38
2018-02-17T00:25:59.581Z,79.28
2018-02-17T00:26:25.674Z,79.1
2018-02-17T00:26:51.778Z,79.1
2018-02-17T00:27:17.875Z,79.1
2018-02-17T00:27:43.977Z,79.38
2018-02-17T00:28:10.078Z,79.47
2018-02-17T00:28:36.180Z,79.66
2018-02-17T00:29:02.273Z,79.44
2018-02-17T00:29:28.373Z,78.96
2018-02-17T00:29:54.497Z,79.44
2018-02-17T00:30:20.720Z,79.28
2018-02-17T00:30:46.773Z,79.25
2018-02-17T00:31:12.944Z,79.82
2018-02-17T00:31:39.060Z,79.19
2018-02-17T00:32:05.154Z,79.28
2018-02-17T00:32:31.255Z,79.25
2018-02-17T00:32:57.364Z,79.25
2018-02-17T00:33:23.459Z,79.1
2018-02-17T00:33:49.571Z,79.66
2018-02-17T00:34:15.666Z,79.63
2018-02-17T00:34:41.766Z,79.72
2018-02-17T00:35:07.867Z,79.82
2018-02-17T00:35:33.959Z,79.63
2018-02-17T00:36:00.063Z,80.38
2018-02-17T00:36:26.158Z,80.19
2018-02-17T00:36:52.262Z,80.19
2018-02-17T00:37:18.384Z,80.1
2018-02-17T00:37:44.483Z,80
2018-02-17T00:38:10.606Z,80.19
2018-02-17T00:38:36.723Z,80.19
2018-02-17T00:39:02.830Z,80.19
2018-02-17T00:39:28.962Z,80.19
2018-02-17T00:39:56.081Z,79.91
2018-02-17T00:40:22.214Z,80.19
2018-02-17T00:40:48.295Z,80
2018-02-17T00:41:14.400Z,80.38
2018-02-17T00:41:40.494Z,80.67
2018-02-17T00:42:06.592Z,80
2018-02-17T00:42:32.696Z,80.19
2018-02-17T00:42:58.792Z,80.29
2018-02-17T00:43:24.893Z,80.38
2018-02-17T00:43:50.996Z,80.19
2018-02-17T00:44:17.166Z,80.29
2018-02-17T00:44:43.271Z,80.38
2018-02-17T00:45:09.366Z,80.48
2018-02-17T00:45:35.496Z,80.38
2018-02-17T00:46:01.594Z,79.63
2018-02-17T00:46:27.709Z,79.91
2018-02-17T00:46:53.814Z,80.29
2018-02-17T00:47:19.914Z,80.38
2018-02-17T00:47:46.029Z,80.19
2018-02-17T00:48:12.129Z,79.63
2018-02-17T00:48:38.228Z,79.82
2018-02-17T00:49:04.323Z,79.53
2018-02-17T00:49:30.454Z,79.91
2018-02-17T00:49:56.554Z,80.1
2018-02-17T00:50:22.650Z,79.63
2018-02-17T00:50:48.753Z,80.48
2018-02-17T00:51:14.857Z,80.1
2018-02-17T00:51:41.018Z,80.38
2018-02-17T00:52:07.109Z,80
2018-02-17T00:52:33.212Z,80.19
2018-02-17T00:52:59.317Z,80.95
2018-02-17T00:53:25.435Z,80.48
2018-02-17T00:53:51.570Z,80.95
2018-02-17T00:54:17.671Z,79.82
2018-02-17T00:54:43.765Z,80
2018-02-17T00:55:09.860Z,80.19
2018-02-17T00:55:35.960Z,80.38
2018-02-17T00:56:02.057Z,80.48
2018-02-17T00:56:28.153Z,79.91
2018-02-17T00:56:54.256Z,80.29
2018-02-17T00:57:20.350Z,79.63
2018-02-17T00:57:46.456Z,79.72
2018-02-17T00:58:12.558Z,80.29
2018-02-17T00:58:38.654Z,80.29
2018-02-17T00:59:04.757Z,80.29
2018-02-17T00:59:30.860Z,80.1
2018-02-17T00:59:56.977Z,80.19
2018-02-17T01:00:23.103Z,80
2018-02-17T01:00:49.193Z,80.1
2018-02-17T01:01:15.294Z,80.19
2018-02-17T01:01:41.401Z,80.29
2018-02-17T01:02:07.499Z,80
2018-02-17T01:02:33.596Z,80.29
2018-02-17T01:02:59.707Z,80.29
2018-02-17T01:03:25.812Z,79.91
2018-02-17T01:03:51.915Z,80.1
2018-02-17T01:04:18.009Z,80.29
2018-02-17T01:04:44.145Z,80.29
2018-02-17T01:05:10.250Z,80
2018-02-17T01:05:36.345Z,80
2018-02-17T01:06:05.483Z,79.91
2018-02-17T01:06:31.576Z,80.29
2018-02-17T01:06:57.680Z,80.1
2018-02-17T01:07:23.816Z,80.19
2018-02-17T01:07:49.912Z,80.19
2018-02-17T01:08:16.015Z,80.19
2018-02-17T01:08:42.110Z,80.38
2018-02-17T01:09:08.213Z,80.19
2018-02-17T01:09:34.314Z,80.38
2018-02-17T01:10:00.405Z,80.29
2018-02-17T01:10:26.542Z,80.38
2018-02-17T01:10:52.643Z,80.19
2018-02-17T01:11:18.738Z,80.48
2018-02-17T01:11:44.837Z,80.38
2018-02-17T01:12:10.942Z,80.67
2018-02-17T01:12:37.038Z,80.76
2018-02-17T01:13:03.138Z,80.38
2018-02-17T01:13:29.238Z,79.91
2018-02-17T01:13:55.342Z,80.29
2018-02-17T01:14:21.446Z,80
2018-02-17T01:14:47.556Z,80.1
2018-02-17T01:15:13.660Z,80.95
2018-02-17T01:15:39.765Z,80.86
2018-02-17T01:16:05.862Z,80.38
2018-02-17T01:16:31.985Z,80.48
2018-02-17T01:16:58.078Z,80.48
2018-02-17T01:17:24.179Z,80.38
2018-02-17T01:17:50.283Z,80.95
2018-02-17T01:18:16.387Z,80.29
2018-02-17T01:18:42.483Z,80.48
2018-02-17T01:19:08.577Z,80.29
2018-02-17T01:19:34.682Z,80.29
2018-02-17T01:20:00.779Z,80.19
2018-02-17T01:20:26.876Z,80.19
2018-02-17T01:20:52.980Z,80.38
2018-02-17T01:21:19.085Z,80.19
2018-02-17T01:21:45.180Z,80.29
2018-02-17T01:22:11.277Z,79.63
2018-02-17T01:22:37.374Z,79.91
2018-02-17T01:23:03.472Z,79.63
2018-02-17T01:23:29.579Z,79.63
2018-02-17T01:23:55.672Z,79.63
2018-02-17T01:24:21.778Z,79.44
2018-02-17T01:24:47.880Z,79.53
2018-02-17T01:25:13.975Z,79.72
2018-02-17T01:25:40.073Z,79.63
2018-02-17T01:26:06.192Z,79.53
2018-02-17T01:26:32.304Z,79.82
2018-02-17T01:26:58.426Z,79.72
2018-02-17T01:27:24.543Z,80.29
2018-02-17T01:27:50.683Z,80.29
2018-02-17T01:28:16.811Z,80
2018-02-17T01:28:42.947Z,80
2018-02-17T01:29:09.072Z,80.1
2018-02-17T01:29:35.194Z,80.19
2018-02-17T01:30:01.290Z,80.19
2018-02-17T01:30:27.394Z,80.1
2018-02-17T01:30:53.492Z,80.29
2018-02-17T01:31:19.596Z,79.91
2018-02-17T01:31:45.741Z,80.29
2018-02-17T01:32:11.876Z,80.38
2018-02-17T01:32:37.982Z,79.91
2018-02-17T01:33:04.098Z,79.63
2018-02-17T01:33:30.200Z,79.53
2018-02-17T01:33:56.310Z,80.48
2018-02-17T01:34:22.427Z,79.91
2018-02-17T01:34:48.552Z,80.48
2018-02-17T01:35:14.653Z,80.29
2018-02-17T01:35:40.780Z,80.57
2018-02-17T01:36:06.901Z,80.29
2018-02-17T01:36:33.046Z,80.1
2018-02-17T01:36:59.119Z,80.29
2018-02-17T01:37:25.263Z,80.48
2018-02-17T01:37:51.398Z,80.25
2018-02-17T01:38:17.545Z,81.43
2018-02-17T01:38:43.682Z,81.2
2018-02-17T01:39:09.780Z,82.14
2018-02-17T01:39:35.890Z,82.43
2018-02-17T01:40:01.997Z,82.33
2018-02-17T01:40:28.101Z,82.9
2018-02-17T01:40:54.213Z,83.47
2018-02-17T01:41:20.312Z,83.47
2018-02-17T01:41:46.483Z,83.56
2018-02-17T01:42:12.611Z,84.13
2018-02-17T01:42:38.761Z,84.13
2018-02-17T01:43:04.861Z,84.8
2018-02-17T01:43:30.954Z,84.38
2018-02-17T01:43:57.058Z,84.42
2018-02-17T01:44:23.154Z,85.36
2018-02-17T01:44:49.253Z,84.89
2018-02-17T01:45:15.350Z,85.27
2018-02-17T01:45:41.477Z,85.13
2018-02-17T01:46:07.597Z,85.46
2018-02-17T01:46:33.694Z,85.51
2018-02-17T01:46:59.801Z,85.36
2018-02-17T01:47:25.920Z,85.27
2018-02-17T01:47:52.018Z,85.36
2018-02-17T01:48:18.117Z,85.74
2018-02-17T01:48:44.212Z,85.55
2018-02-17T01:49:10.309Z,85.36
2018-02-17T01:49:36.414Z,85.55
2018-02-17T01:50:02.513Z,85.27
2018-02-17T01:50:28.634Z,85.36
2018-02-17T01:50:54.745Z,84.13
2018-02-17T01:51:20.850Z,84.23
2018-02-17T01:51:47.242Z,84.51
2018-02-17T01:52:13.345Z,84.32
2018-02-17T01:52:39.481Z,84.13
2018-02-17T01:53:05.577Z,84.42
2018-02-17T01:53:31.676Z,84.8
2018-02-17T01:53:57.781Z,84.8
2018-02-17T01:54:23.903Z,85.27
2018-02-17T01:54:50.003Z,84.8
2018-02-17T01:55:16.097Z,84.89
2018-02-17T01:55:42.228Z,84.7
2018-02-17T01:56:08.305Z,85.08
2018-02-17T01:56:34.429Z,83.94
2018-02-17T01:57:00.522Z,84.42
2018-02-17T01:57:26.630Z,84.32
2018-02-17T01:57:52.757Z,84.42
2018-02-17T01:58:18.881Z,83.85
2018-02-17T01:58:45.277Z,83.56
2018-02-17T01:59:11.386Z,83.47
2018-02-17T01:59:37.475Z,83.18
2018-02-17T02:00:03.581Z,83.18
2018-02-17T02:00:29.709Z,83.85
2018-02-17T02:00:55.807Z,84.13
2018-02-17T02:01:21.906Z,84.13
2018-02-17T02:01:48.009Z,84.13
2018-02-17T02:02:14.107Z,84.13
2018-02-17T02:02:40.208Z,83.75
2018-02-17T02:03:06.311Z,84.32
2018-02-17T02:03:32.428Z,84.51
2018-02-17T02:03:58.529Z,84.42
2018-02-17T02:04:24.623Z,84.23
2018-02-17T02:04:50.723Z,84.42
2018-02-17T02:05:16.819Z,84.23
2018-02-17T02:05:43.254Z,84.42
2018-02-17T02:06:09.355Z,84.13
2018-02-17T02:06:35.456Z,84.23
2018-02-17T02:07:01.570Z,83.75
2018-02-17T02:07:27.674Z,83.85
2018-02-17T02:07:53.770Z,83.28
2018-02-17T02:08:19.880Z,83.56
2018-02-17T02:08:45.984Z,83.28
2018-02-17T02:09:12.086Z,83.28
2018-02-17T02:09:38.180Z,82.62
2018-02-17T02:10:04.280Z,83
2018-02-17T02:10:30.395Z,83.09
2018-02-17T02:10:56.493Z,82.81
2018-02-17T02:11:22.593Z,82.81
2018-02-17T02:11:48.692Z,82.37
2018-02-17T02:12:14.795Z,82.24
2018-02-17T02:12:41.531Z,81.86
2018-02-17T02:13:07.629Z,82.14
2018-02-17T02:13:33.729Z,81.67
2018-02-17T02:13:59.835Z,81.76
2018-02-17T02:14:25.934Z,82.43
2018-02-17T02:14:52.036Z,82.33
2018-02-17T02:15:18.138Z,82.52
2018-02-17T02:15:44.259Z,82.71
2018-02-17T02:16:10.356Z,82.71
2018-02-17T02:16:36.462Z,82.71
2018-02-17T02:17:02.556Z,83.23
2018-02-17T02:17:28.664Z,83.09
2018-02-17T02:17:54.764Z,82.62
2018-02-17T02:18:20.867Z,82.66
2018-02-17T02:18:46.965Z,82.14
2018-02-17T02:19:13.062Z,82.24
2018-02-17T02:19:39.158Z,82.33
2018-02-17T02:20:05.275Z,82.33
2018-02-17T02:20:31.376Z,82.14
2018-02-17T02:20:57.471Z,82.43
2018-02-17T02:21:23.574Z,82.71
2018-02-17T02:21:49.674Z,83.28
2018-02-17T02:22:15.768Z,83.28
2018-02-17T02:22:41.870Z,82.81
2018-02-17T02:23:07.970Z,83.18
2018-02-17T02:23:34.064Z,83.37
2018-02-17T02:24:00.169Z,83.56
2018-02-17T02:24:26.265Z,83.85
2018-02-17T02:24:52.394Z,83.37
2018-02-17T02:25:18.515Z,83.37
2018-02-17T02:25:44.615Z,83
2018-02-17T02:26:10.712Z,83.09
2018-02-17T02:26:36.818Z,83.09
2018-02-17T02:27:02.914Z,83.09
2018-02-17T02:27:29.018Z,83.28
2018-02-17T02:27:55.127Z,83
2018-02-17T02:28:21.231Z,83.28
2018-02-17T02:28:47.470Z,83.47
2018-02-17T02:29:13.536Z,83.47
2018-02-17T02:29:39.637Z,84.04
2018-02-17T02:30:05.778Z,84.04
2018-02-17T02:30:31.904Z,84.42
2018-02-17T02:30:58.227Z,84.89
2018-02-17T02:31:24.318Z,84.42
2018-02-17T02:31:50.416Z,84.13
2018-02-17T02:32:16.521Z,84.23
2018-02-17T02:32:42.623Z,84.51
2018-02-17T02:33:08.717Z,84.13
2018-02-17T02:33:34.813Z,84.51
2018-02-17T02:34:00.911Z,84.04
2018-02-17T02:34:27.014Z,84.51
2018-02-17T02:34:53.112Z,84.13
2018-02-17T02:35:19.232Z,84.51
2018-02-17T02:35:45.344Z,84.42
2018-02-17T02:36:11.438Z,84.32
2018-02-17T02:36:37.567Z,84.47
2018-02-17T02:37:03.663Z,84.7
2018-02-17T02:37:29.760Z,84.66
2018-02-17T02:37:55.868Z,85.27
2018-02-17T02:38:21.972Z,85.74
2018-02-17T02:38:48.097Z,85.46
2018-02-17T02:39:14.192Z,85.55
2018-02-17T02:39:40.312Z,85.55
2018-02-17T02:40:06.405Z,85.93
2018-02-17T02:40:32.502Z,86.03
2018-02-17T02:40:58.734Z,85.74
2018-02-17T02:41:24.830Z,86.03
2018-02-17T02:41:50.941Z,85.65
2018-02-17T02:42:17.028Z,85.36
2018-02-17T02:42:43.131Z,85.65
2018-02-17T02:43:09.228Z,85.36
2018-02-17T02:43:35.331Z,85.36
2018-02-17T02:44:01.434Z,85.27
2018-02-17T02:44:27.547Z,84.61
2018-02-17T02:44:53.657Z,84.61
2018-02-17T02:45:19.787Z,85.27
2018-02-17T02:45:45.924Z,84.89
2018-02-17T02:46:12.016Z,85.27
2018-02-17T02:46:38.126Z,84.61
2018-02-17T02:47:04.218Z,84.42
2018-02-17T02:47:30.313Z,84.13
2018-02-17T02:47:56.418Z,84.32
2018-02-17T02:48:22.512Z,84.32
2018-02-17T02:48:48.621Z,84.13
2018-02-17T02:49:14.719Z,84.99
2018-02-17T02:49:40.846Z,84.75
2018-02-17T02:50:06.947Z,84.89
2018-02-17T02:50:33.063Z,84.99
2018-02-17T02:50:59.179Z,84.61
2018-02-17T02:51:25.274Z,84.89
2018-02-17T02:51:51.389Z,85.08
2018-02-17T02:52:17.492Z,85.04
2018-02-17T02:52:43.590Z,84.94
2018-02-17T02:53:09.695Z,85.42
2018-02-17T02:53:35.786Z,85.42
2018-02-17T02:54:01.890Z,85.13
2018-02-17T02:54:28.009Z,85.23
2018-02-17T02:54:54.118Z,85.32
2018-02-17T02:55:20.224Z,86.12
2018-02-17T02:55:46.318Z,86.18
2018-02-17T02:56:12.420Z,86.03
2018-02-17T02:56:38.518Z,86.03
2018-02-17T02:57:04.615Z,85.17
2018-02-17T02:57:30.721Z,85.46
2018-02-17T02:57:56.822Z,85.36
2018-02-17T02:58:22.920Z,85.17
2018-02-17T02:58:49.022Z,85.27
2018-02-17T02:59:15.123Z,85.55
2018-02-17T02:59:41.222Z,84.99
2018-02-17T03:00:07.314Z,85.17
2018-02-17T03:00:33.418Z,85.17
2018-02-17T03:00:59.534Z,84.51
2018-02-17T03:01:25.632Z,84.42
2018-02-17T03:01:51.754Z,84.32
2018-02-17T03:02:17.852Z,84.32
2018-02-17T03:02:43.958Z,84.13
2018-02-17T03:03:10.052Z,84.7
2018-02-17T03:03:36.145Z,84.61
2018-02-17T03:04:02.248Z,84.42
2018-02-17T03:04:28.341Z,84.61
2018-02-17T03:04:54.446Z,85.08
2018-02-17T03:05:20.540Z,84.13
2018-02-17T03:05:46.640Z,84.51
2018-02-17T03:06:12.744Z,84.04
2018-02-17T03:06:38.844Z,84.13
2018-02-17T03:07:04.944Z,84.04
2018-02-17T03:07:31.038Z,83.75
2018-02-17T03:07:57.140Z,83.75
2018-02-17T03:08:23.244Z,83
2018-02-17T03:08:49.335Z,83.75
2018-02-17T03:09:15.436Z,83.56
2018-02-17T03:09:41.530Z,83.56
2018-02-17T03:10:07.635Z,84.32
2018-02-17T03:10:33.731Z,84.23
2018-02-17T03:10:59.834Z,83.75
2018-02-17T03:11:25.931Z,84.04
2018-02-17T03:11:52.052Z,83.66
2018-02-17T03:12:18.165Z,84.23
2018-02-17T03:12:44.257Z,84.32
2018-02-17T03:13:10.379Z,84.23
2018-02-17T03:13:36.477Z,84.32
2018-02-17T03:14:02.572Z,84.61
2018-02-17T03:14:28.671Z,85.27
2018-02-17T03:14:54.770Z,85.17
2018-02-17T03:15:20.868Z,84.8
2018-02-17T03:15:46.991Z,84.7
2018-02-17T03:16:13.093Z,85.08
2018-02-17T03:16:39.217Z,85.65
2018-02-17T03:17:05.317Z,85.27
2018-02-17T03:17:31.409Z,85.46
2018-02-17T03:17:57.510Z,85.55
2018-02-17T03:18:23.613Z,85.08
2018-02-17T03:18:49.726Z,84.8
2018-02-17T03:19:15.825Z,84.47
2018-02-17T03:19:41.922Z,84.66
2018-02-17T03:20:08.020Z,85.51
2018-02-17T03:20:34.134Z,85.42
2018-02-17T03:21:00.238Z,85.32
2018-02-17T03:21:26.340Z,85.32
2018-02-17T03:21:52.449Z,85.51
2018-02-17T03:22:18.553Z,85.46
2018-02-17T03:22:44.660Z,85.8
2018-02-17T03:23:10.765Z,85.74
2018-02-17T03:23:36.883Z,85.27
2018-02-17T03:24:02.979Z,85.36
2018-02-17T03:24:29.074Z,85.84
2018-02-17T03:24:55.180Z,85.65
2018-02-17T03:25:21.305Z,85.84
2018-02-17T03:25:47.402Z,85.36
2018-02-17T03:26:13.504Z,85.65
2018-02-17T03:26:39.604Z,85.27
2018-02-17T03:27:05.697Z,85.55
2018-02-17T03:27:31.802Z,85.55
2018-02-17T03:27:57.897Z,85.17
2018-02-17T03:28:23.992Z,85.36
2018-02-17T03:28:50.098Z,85.93
2018-02-17T03:29:16.192Z,85.36
2018-02-17T03:29:42.295Z,85.17
2018-02-17T03:30:08.412Z,85.46
2018-02-17T03:30:34.510Z,85.27
2018-02-17T03:31:00.612Z,84.61
2018-02-17T03:31:26.725Z,84.23
2018-02-17T03:31:52.820Z,84.42
2018-02-17T03:32:18.922Z,84.42
2018-02-17T03:32:45.037Z,84.13
2018-02-17T03:33:11.159Z,85.08
2018-02-17T03:33:37.255Z,84.8
2018-02-17T03:34:03.357Z,85.46
2018-02-17T03:34:29.462Z,85.46
2018-02-17T03:34:55.573Z,85.08
2018-02-17T03:35:21.671Z,85.17
2018-02-17T03:35:47.772Z,84.7
2018-02-17T03:36:13.883Z,84.89
2018-02-17T03:36:39.984Z,84.99
2018-02-17T03:37:06.088Z,84.23
2018-02-17T03:37:32.183Z,84.42
2018-02-17T03:37:58.283Z,84.23
2018-02-17T03:38:24.386Z,84.32
2018-02-17T03:38:50.499Z,84.04
2018-02-17T03:39:16.601Z,84.13
2018-02-17T03:39:42.701Z,84.32
2018-02-17T03:40:08.798Z,84.13
2018-02-17T03:40:34.906Z,83.75
2018-02-17T03:41:00.996Z,83.94
2018-02-17T03:41:27.094Z,84.23
2018-02-17T03:41:53.188Z,83.85
2018-02-17T03:42:19.295Z,83.47
2018-02-17T03:42:45.408Z,83.47
2018-02-17T03:43:11.520Z,84.04
2018-02-17T03:43:37.619Z,83.85
2018-02-17T03:44:03.724Z,83.94
2018-02-17T03:44:29.823Z,84.04
2018-02-17T03:44:55.936Z,83.85
2018-02-17T03:45:22.035Z,84.32
2018-02-17T03:45:48.137Z,85.04
2018-02-17T03:46:14.230Z,84.85
2018-02-17T03:46:40.329Z,85.23
2018-02-17T03:47:06.427Z,85.42
2018-02-17T03:47:32.530Z,85.32
2018-02-17T03:47:58.626Z,85.13
2018-02-17T03:48:24.733Z,85.99
2018-02-17T03:48:50.827Z,86.08
2018-02-17T03:49:16.945Z,85.42
2018-02-17T03:49:43.050Z,85.89
2018-02-17T03:50:09.145Z,85.8
2018-02-17T03:50:35.244Z,85.99
2018-02-17T03:51:01.367Z,85.89
2018-02-17T03:51:27.464Z,85.89
2018-02-17T03:51:53.561Z,85.8
2018-02-17T03:52:19.663Z,86.27
2018-02-17T03:52:45.765Z,86.55
2018-02-17T03:53:11.862Z,86.36
2018-02-17T03:53:37.964Z,86.27
2018-02-17T03:54:04.058Z,86.18
2018-02-17T03:54:30.156Z,86.27
2018-02-17T03:54:56.273Z,86.18
2018-02-17T03:55:22.377Z,86.55
2018-02-17T03:55:48.469Z,86.55
2018-02-17T03:56:14.586Z,87.12
2018-02-17T03:56:40.686Z,86.55
2018-02-17T03:57:06.786Z,86.74
2018-02-17T03:57:32.888Z,86.65
2018-02-17T03:57:58.976Z,86.74
2018-02-17T03:58:25.081Z,86.36
2018-02-17T03:58:51.182Z,86.74
2018-02-17T03:59:17.277Z,86.93
2018-02-17T03:59:43.421Z,86.18
2018-02-17T04:00:09.485Z,86.36
2018-02-17T04:00:35.582Z,86.18
2018-02-17T04:01:01.681Z,86.36
2018-02-17T04:01:27.780Z,86.18
2018-02-17T04:01:53.882Z,86.93
2018-02-17T04:02:19.986Z,87.12
2018-02-17T04:02:46.081Z,86.74
2018-02-17T04:03:12.175Z,86.65
2018-02-17T04:03:38.284Z,86.36
2018-02-17T04:04:04.383Z,86.36
2018-02-17T04:04:30.482Z,86.18
2018-02-17T04:04:56.577Z,86.18
2018-02-17T04:05:22.679Z,86.18
2018-02-17T04:05:48.773Z,86.74
2018-02-17T04:06:14.869Z,86.74
2018-02-17T04:06:40.980Z,86.55
2018-02-17T04:07:07.075Z,86.93
2018-02-17T04:07:33.174Z,86.18
2018-02-17T04:07:59.277Z,86.08
2018-02-17T04:08:25.374Z,86.08
2018-02-17T04:08:51.475Z,85.65
2018-02-17T04:09:17.595Z,85.74
2018-02-17T04:09:43.698Z,85.7
2018-02-17T04:10:09.818Z,85.84
2018-02-17T04:10:35.928Z,85.84
2018-02-17T04:11:02.022Z,86.22
2018-02-17T04:11:28.120Z,85.27
2018-02-17T04:11:54.225Z,85.74
2018-02-17T04:12:20.339Z,85.55
2018-02-17T04:12:46.441Z,85.74
2018-02-17T04:13:12.598Z,85.46
2018-02-17T04:13:38.651Z,84.89
2018-02-17T04:14:04.751Z,85.17
2018-02-17T04:14:30.853Z,85.17
2018-02-17T04:14:56.952Z,84.61
2018-02-17T04:15:23.046Z,84.13
2018-02-17T04:15:49.150Z,84.32
2018-02-17T04:16:15.251Z,84.61
2018-02-17T04:16:41.345Z,84.23
2018-02-17T04:17:07.449Z,84.23
2018-02-17T04:17:33.543Z,84.13
2018-02-17T04:17:59.641Z,84.28
2018-02-17T04:18:25.760Z,84.19
2018-02-17T04:18:51.858Z,84.56
2018-02-17T04:19:17.962Z,85.23
2018-02-17T04:19:44.058Z,85.04
2018-02-17T04:20:10.162Z,85.42
2018-02-17T04:20:36.257Z,85.51
2018-02-17T04:21:02.397Z,85.42
2018-02-17T04:21:28.498Z,85.51
2018-02-17T04:21:54.596Z,85.42
2018-02-17T04:22:20.699Z,85.42
2018-02-17T04:22:46.791Z,85.61
2018-02-17T04:23:12.895Z,85.8
2018-02-17T04:23:38.996Z,85.99
2018-02-17T04:24:05.085Z,85.89
2018-02-17T04:24:31.186Z,85.89
2018-02-17T04:24:57.290Z,85.42
2018-02-17T04:25:23.383Z,85.99
2018-02-17T04:25:49.486Z,85.99
2018-02-17T04:26:15.595Z,86.18
2018-02-17T04:26:41.689Z,86.18
2018-02-17T04:27:07.794Z,86.08
2018-02-17T04:27:33.898Z,86.36
2018-02-17T04:27:59.996Z,86.93
2018-02-17T04:28:26.099Z,86.74
2018-02-17T04:28:52.195Z,86.65
2018-02-17T04:29:18.294Z,86.46
2018-02-17T04:29:44.402Z,87.02
2018-02-17T04:30:10.501Z,87.02
2018-02-17T04:30:36.603Z,86.74
2018-02-17T04:31:02.706Z,87.31
2018-02-17T04:31:28.804Z,87.12
2018-02-17T04:31:54.915Z,87.4
2018-02-17T04:32:21.013Z,86.65
2018-02-17T04:32:47.116Z,87.12
2018-02-17T04:33:13.253Z,87.02
2018-02-17T04:33:39.358Z,86.93
2018-02-17T04:34:05.459Z,87.12
2018-02-17T04:34:31.554Z,87.02
2018-02-17T04:34:57.655Z,87.12
2018-02-17T04:35:23.760Z,87.31
2018-02-17T04:35:49.854Z,87.02
2018-02-17T04:36:15.958Z,86.65
2018-02-17T04:36:42.052Z,87.59
2018-02-17T04:37:08.155Z,87.4
2018-02-17T04:37:34.255Z,87.21
2018-02-17T04:38:00.351Z,87.02
2018-02-17T04:38:26.457Z,87.21
2018-02-17T04:38:52.557Z,87.46
2018-02-17T04:39:18.650Z,87.46
2018-02-17T04:39:44.748Z,87.93
2018-02-17T04:40:10.855Z,87.69
2018-02-17T04:40:36.951Z,87.98
2018-02-17T04:41:03.048Z,88.02
2018-02-17T04:41:29.155Z,87.84
2018-02-17T04:41:55.269Z,88.02
2018-02-17T04:42:21.372Z,88.12
2018-02-17T04:42:47.468Z,87.84
2018-02-17T04:43:13.563Z,88.17
2018-02-17T04:43:39.665Z,87.98
2018-02-17T04:44:05.769Z,87.98
2018-02-17T04:44:31.879Z,87.88
2018-02-17T04:44:57.976Z,88.07
2018-02-17T04:45:24.075Z,88.17
2018-02-17T04:45:50.173Z,87.78
2018-02-17T04:46:16.269Z,87.5
2018-02-17T04:46:42.368Z,87.88
2018-02-17T04:47:08.476Z,87.31
2018-02-17T04:47:34.596Z,87.31
2018-02-17T04:48:00.691Z,87.69
2018-02-17T04:48:26.784Z,87.78
2018-02-17T04:48:52.887Z,87.21
2018-02-17T04:49:18.987Z,87.12
2018-02-17T04:49:45.101Z,86.83
2018-02-17T04:50:11.207Z,86.83
2018-02-17T04:50:37.301Z,87.02
2018-02-17T04:51:03.398Z,87.02
2018-02-17T04:51:29.491Z,87.21
2018-02-17T04:51:55.598Z,86.74
2018-02-17T04:52:21.697Z,86.83
2018-02-17T04:52:47.817Z,87.4
2018-02-17T04:53:13.922Z,87.5
2018-02-17T04:53:40.022Z,87.5
2018-02-17T04:54:06.118Z,87.31
2018-02-17T04:54:32.219Z,87.4
2018-02-17T04:54:58.320Z,86.83
2018-02-17T04:55:24.417Z,86.74
2018-02-17T04:55:50.511Z,87.31
2018-02-17T04:56:16.611Z,86.83
2018-02-17T04:56:42.709Z,87.02
2018-02-17T04:57:08.813Z,87.12
2018-02-17T04:57:34.908Z,86.55
2018-02-17T04:58:01.004Z,86.55
2018-02-17T04:58:27.109Z,87.02
2018-02-17T04:58:53.200Z,87.02
2018-02-17T04:59:19.301Z,87.5
2018-02-17T04:59:45.398Z,87.27
2018-02-17T05:00:11.502Z,87.08
2018-02-17T05:00:37.602Z,87.74
2018-02-17T05:01:03.707Z,87.46
2018-02-17T05:01:29.796Z,87.46
2018-02-17T05:01:55.899Z,87.84
2018-02-17T05:02:21.993Z,88.02
2018-02-17T05:02:48.091Z,87.93
2018-02-17T05:03:14.195Z,87.55
2018-02-17T05:03:40.294Z,88.12
2018-02-17T05:04:06.412Z,87.93
2018-02-17T05:04:32.515Z,88.4
2018-02-17T05:04:58.630Z,88.59
2018-02-17T05:05:24.724Z,88.21
2018-02-17T05:05:50.849Z,88.87
2018-02-17T05:06:16.945Z,88.97
2018-02-17T05:06:43.049Z,89.54
2018-02-17T05:07:09.143Z,89.44
2018-02-17T05:07:35.240Z,89.54
2018-02-17T05:08:01.340Z,89.54
2018-02-17T05:08:27.440Z,89.92
2018-02-17T05:08:53.538Z,89.73
2018-02-17T05:09:19.642Z,89.92
2018-02-17T05:09:45.756Z,89.82
2018-02-17T05:10:11.857Z,89.92
2018-02-17T05:10:37.955Z,90.2
2018-02-17T05:11:04.054Z,90.39
2018-02-17T05:11:30.153Z,90.01
2018-02-17T05:11:56.253Z,90.2
2018-02-17T05:12:22.369Z,90.11
2018-02-17T05:12:48.471Z,90.39
2018-02-17T05:13:14.566Z,90.77
2018-02-17T05:13:40.671Z,90.39
2018-02-17T05:14:06.783Z,90.48
2018-02-17T05:14:32.882Z,90.48
2018-02-17T05:14:58.985Z,90.96
2018-02-17T05:15:25.088Z,90.77
2018-02-17T05:15:51.183Z,90.48
2018-02-17T05:16:17.281Z,91.34
2018-02-17T05:16:43.383Z,90.96
2018-02-17T05:17:09.478Z,90.96
2018-02-17T05:17:35.580Z,91.43
2018-02-17T05:18:01.677Z,91.62
2018-02-17T05:18:27.779Z,91.43
2018-02-17T05:18:53.881Z,91.34
2018-02-17T05:19:19.976Z,91.24
2018-02-17T05:19:46.080Z,91.39
2018-02-17T05:20:12.177Z,91.53
2018-02-17T05:20:38.281Z,92
2018-02-17T05:21:04.377Z,91.72
2018-02-17T05:21:30.483Z,92.1
2018-02-17T05:21:56.586Z,91.96
2018-02-17T05:22:22.681Z,92
2018-02-17T05:22:48.782Z,91.81
2018-02-17T05:23:14.876Z,91.62
2018-02-17T05:23:40.997Z,91.91
2018-02-17T05:24:07.075Z,91.72
2018-02-17T05:24:33.177Z,91.72
2018-02-17T05:24:59.274Z,92
2018-02-17T05:25:25.381Z,91.72
2018-02-17T05:25:51.481Z,91.53
2018-02-17T05:26:17.575Z,91.81
2018-02-17T05:26:43.671Z,91.72
2018-02-17T05:27:09.768Z,91.81
2018-02-17T05:27:35.870Z,91.53
2018-02-17T05:28:01.964Z,91.53
2018-02-17T05:28:28.064Z,92
2018-02-17T05:28:54.165Z,91.43
2018-02-17T05:29:20.282Z,91.62
2018-02-17T05:29:46.374Z,91.43
2018-02-17T05:30:12.472Z,91.43
2018-02-17T05:30:38.576Z,90.96
2018-02-17T05:31:04.671Z,90.96
2018-02-17T05:31:30.776Z,90.67
2018-02-17T05:31:56.877Z,90.39
2018-02-17T05:32:22.971Z,90.67
2018-02-17T05:32:49.076Z,90.11
2018-02-17T05:33:15.171Z,89.92
2018-02-17T05:33:41.270Z,90.2
2018-02-17T05:34:07.375Z,90.39
2018-02-17T05:34:33.476Z,89.63
2018-02-17T05:34:59.571Z,89.92
2018-02-17T05:35:25.675Z,89.82
2018-02-17T05:35:51.770Z,90.39
2018-02-17T05:36:17.869Z,90.01
2018-02-17T05:36:43.971Z,90.2
2018-02-17T05:37:10.066Z,90.11
2018-02-17T05:37:36.170Z,89.82
2018-02-17T05:38:02.273Z,90.01